Time;durP1;ratioP1;P1;durP2;ratioP2;P2;SDS_P1;SDS_P2;PMS_P1;PMS_P2;Temp;Humidity;BMP_temperature;BMP_pressure;BME280_temperature;BME280_humidity;BME280_pressure;Samples;Min_cycle;Max_cycle;Signal;HPM_P1;HPM_P2
2022/05/02 00:00:20;;;;;;;10.63;8.20;;;13.30;85.90;;;;;;5032687;28;20691;-36
2022/05/02 00:02:48;;;;;;;12.27;8.80;;;13.30;86.00;;;;;;5034525;28;20208;-36
2022/05/02 00:05:16;;;;;;;10.95;8.25;;;13.20;85.90;;;;;;5030071;28;20287;-36
2022/05/02 00:07:46;;;;;;;9.50;7.97;;;13.20;85.90;;;;;;5035693;28;20581;-37
2022/05/02 00:10:19;;;;;;;13.60;8.40;;;13.20;86.10;;;;;;5027247;28;20643;-37
2022/05/02 00:12:46;;;;;;;9.00;8.10;;;13.20;86.10;;;;;;5038112;28;20234;-36
2022/05/02 00:15:14;;;;;;;11.93;9.13;;;13.10;85.90;;;;;;5047345;28;20706;-36
2022/05/02 00:17:56;;;;;;;12.23;8.53;;;13.10;85.90;;;;;;5038969;28;20616;-36
2022/05/02 00:20:24;;;;;;;11.13;8.67;;;13.10;85.90;;;;;;5028793;28;20207;-36
2022/05/02 00:22:54;;;;;;;11.57;9.20;;;13.00;86.00;;;;;;5029497;28;20516;-36
2022/05/02 00:25:21;;;;;;;10.67;9.20;;;13.00;85.90;;;;;;5037571;28;20251;-36
2022/05/02 00:27:49;;;;;;;11.53;8.73;;;13.00;85.90;;;;;;5029234;28;20239;-36
2022/05/02 00:30:17;;;;;;;14.10;9.20;;;12.90;85.90;;;;;;5020202;28;20409;-36
2022/05/02 00:32:45;;;;;;;10.50;8.63;;;12.90;85.80;;;;;;5024464;28;20622;-36
2022/05/02 00:35:13;;;;;;;11.03;8.70;;;12.90;85.90;;;;;;5028401;28;20529;-37
2022/05/02 00:37:41;;;;;;;10.17;9.17;;;12.80;85.90;;;;;;5028917;28;20228;-36
2022/05/02 00:40:10;;;;;;;10.67;8.90;;;12.80;85.90;;;;;;5043849;28;20679;-37
2022/05/02 00:42:38;;;;;;;13.43;9.33;;;12.80;86.60;;;;;;5041967;28;20216;-36
2022/05/02 00:45:07;;;;;;;13.50;9.70;;;12.80;85.90;;;;;;5029247;28;20235;-36
2022/05/02 00:47:35;;;;;;;11.47;9.77;;;12.70;85.90;;;;;;5039348;28;20295;-36
2022/05/02 00:50:08;;;;;;;11.80;9.57;;;12.70;85.90;;;;;;5046184;28;20693;-36
2022/05/02 00:52:36;;;;;;;11.70;8.97;;;12.70;85.90;;;;;;5028955;28;20201;-36
2022/05/02 00:55:04;;;;;;;12.03;9.67;;;12.70;85.80;;;;;;5028064;28;20201;-36
2022/05/02 00:57:32;;;;;;;11.87;9.47;;;12.60;85.90;;;;;;5032121;28;20675;-36
2022/05/02 01:00:01;;;;;;;13.93;10.27;;;12.60;86.10;;;;;;5040097;28;20204;-36
2022/05/02 01:02:28;;;;;;;10.83;9.53;;;12.50;85.90;;;;;;5046801;28;20220;-36
2022/05/02 01:04:55;;;;;;;14.17;10.23;;;12.50;85.90;;;;;;5031276;28;20299;-36
2022/05/02 01:07:23;;;;;;;12.10;9.93;;;12.50;85.90;;;;;;5023168;28;20636;-36
2022/05/02 01:09:52;;;;;;;13.60;10.13;;;12.50;85.90;;;;;;5039653;28;20231;-39
2022/05/02 01:12:24;;;;;;;11.83;9.70;;;12.40;86.00;;;;;;5040957;28;20239;-38
2022/05/02 01:14:57;;;;;;;14.10;10.60;;;12.40;85.90;;;;;;5046836;28;20206;-39
2022/05/02 01:17:24;;;;;;;14.07;10.30;;;12.40;86.30;;;;;;5034024;28;20348;-40
2022/05/02 01:19:52;;;;;;;11.40;10.20;;;12.30;85.90;;;;;;5031481;28;20197;-39
2022/05/02 01:22:21;;;;;;;12.37;10.33;;;12.30;86.10;;;;;;5031611;28;20240;-36
2022/05/02 01:24:49;;;;;;;13.17;10.80;;;12.30;86.30;;;;;;5037232;28;20199;-36
2022/05/02 01:27:20;;;;;;;13.00;10.10;;;12.20;86.00;;;;;;5037726;28;20209;-36
2022/05/02 01:29:47;;;;;;;16.83;10.60;;;12.20;86.00;;;;;;5041098;28;20291;-36
2022/05/02 01:32:16;;;;;;;13.97;11.27;;;12.20;86.70;;;;;;5048201;28;20696;-36
2022/05/02 01:34:43;;;;;;;13.57;10.63;;;12.10;86.00;;;;;;5045115;28;20219;-36
2022/05/02 01:37:14;;;;;;;13.53;11.47;;;12.10;86.10;;;;;;5029335;28;20220;-36
2022/05/02 01:39:42;;;;;;;15.30;11.73;;;12.10;86.20;;;;;;5026326;28;20729;-36
2022/05/02 01:42:11;;;;;;;13.60;10.60;;;12.10;86.20;;;;;;5028516;28;20193;-36
2022/05/02 01:44:39;;;;;;;15.57;11.53;;;12.00;86.20;;;;;;5026459;28;20201;-36
2022/05/02 01:47:09;;;;;;;13.17;11.60;;;12.00;86.20;;;;;;5028082;28;20220;-36
2022/05/02 01:49:37;;;;;;;15.13;11.73;;;12.00;86.30;;;;;;5026787;28;20205;-36
2022/05/02 01:52:04;;;;;;;15.23;11.93;;;11.90;86.20;;;;;;5047294;28;20265;-36
2022/05/02 01:54:32;;;;;;;13.53;11.20;;;11.90;86.20;;;;;;5044288;28;20304;-36
2022/05/02 01:57:01;;;;;;;13.33;11.20;;;11.90;86.20;;;;;;5036239;28;20361;-36
2022/05/02 01:59:31;;;;;;;13.67;11.80;;;11.80;86.10;;;;;;5059105;28;20548;-36
2022/05/02 02:02:01;;;;;;;13.53;11.40;;;11.80;86.30;;;;;;5067939;28;20555;-36
2022/05/02 02:07:17;;;;;;;15.43;11.23;;;11.80;86.20;;;;;;5028560;28;20635;-36
2022/05/02 02:09:44;;;;;;;14.57;11.43;;;11.70;86.30;;;;;;5026242;28;20200;-36
2022/05/02 02:12:11;;;;;;;12.37;11.03;;;11.70;86.40;;;;;;5028382;28;20609;-36
2022/05/02 02:14:41;;;;;;;17.67;12.07;;;11.70;86.40;;;;;;5039036;28;20208;-36
2022/05/02 02:17:08;;;;;;;14.53;11.50;;;11.70;86.30;;;;;;5047836;28;20232;-38
2022/05/02 02:19:38;;;;;;;13.27;11.87;;;11.60;86.20;;;;;;5046955;28;20231;-39
2022/05/02 02:22:17;;;;;;;15.20;11.13;;;11.60;86.40;;;;;;5048140;28;20205;-39
2022/05/02 02:24:46;;;;;;;17.97;12.37;;;11.60;86.40;;;;;;5041646;28;20216;-39
2022/05/02 02:27:14;;;;;;;13.27;11.37;;;11.50;86.50;;;;;;5047658;28;20577;-39
2022/05/02 02:29:41;;;;;;;16.47;12.67;;;11.50;86.50;;;;;;5029545;28;20658;-40
2022/05/02 02:32:09;;;;;;;13.97;11.63;;;11.50;86.60;;;;;;5027356;28;20224;-38
2022/05/02 02:34:36;;;;;;;15.20;12.53;;;11.40;86.60;;;;;;5025281;28;20694;-39
2022/05/02 02:37:06;;;;;;;14.03;11.93;;;11.40;86.60;;;;;;5027572;28;20229;-39
2022/05/02 02:39:33;;;;;;;13.47;11.13;;;11.40;86.60;;;;;;5030194;28;20267;-39
2022/05/02 02:42:01;;;;;;;12.73;11.40;;;11.30;86.40;;;;;;5039021;28;20715;-39
2022/05/02 02:44:28;;;;;;;14.00;11.90;;;11.30;86.80;;;;;;5031464;28;20201;-38
2022/05/02 02:46:57;;;;;;;14.27;11.67;;;11.30;86.50;;;;;;5030568;28;20245;-38
2022/05/02 02:49:25;;;;;;;14.83;11.30;;;11.30;86.50;;;;;;5030597;28;20300;-38
2022/05/02 02:51:52;;;;;;;13.47;11.50;;;11.30;86.50;;;;;;5030386;28;20208;-38
2022/05/02 02:54:21;;;;;;;14.97;11.77;;;11.30;86.40;;;;;;5034014;28;20209;-39
2022/05/02 02:56:49;;;;;;;15.43;12.07;;;11.30;86.50;;;;;;5048521;28;20319;-39
2022/05/02 02:59:16;;;;;;;14.40;12.23;;;11.20;86.50;;;;;;5039871;28;20267;-40
2022/05/02 03:01:43;;;;;;;14.13;11.67;;;11.20;86.50;;;;;;5032528;28;20237;-39
2022/05/02 03:06:59;;;;;;;14.93;12.40;;;11.20;86.70;;;;;;5043090;28;20239;-38
2022/05/02 03:09:28;;;;;;;14.73;11.80;;;11.10;86.60;;;;;;5032164;28;20309;-38
2022/05/02 03:11:55;;;;;;;16.27;12.27;;;11.10;86.70;;;;;;5031062;28;20224;-39
2022/05/02 03:14:25;;;;;;;15.87;12.77;;;11.10;86.60;;;;;;5029119;28;20300;-39
2022/05/02 03:16:52;;;;;;;14.00;11.60;;;11.10;86.60;;;;;;5046117;28;20615;-38
2022/05/02 03:19:19;;;;;;;14.70;11.73;;;11.10;86.80;;;;;;5042917;28;20665;-39
2022/05/02 03:21:47;;;;;;;14.73;12.30;;;11.10;86.60;;;;;;5030700;28;20683;-39
2022/05/02 03:24:14;;;;;;;15.13;12.23;;;11.00;86.50;;;;;;5047210;28;20295;-38
2022/05/02 03:26:43;;;;;;;16.40;13.27;;;11.00;86.70;;;;;;5050782;28;20200;-38
2022/05/02 03:29:10;;;;;;;14.90;12.17;;;11.00;86.80;;;;;;5048184;28;20287;-38
2022/05/02 03:31:38;;;;;;;20.10;12.73;;;11.00;87.00;;;;;;5037067;28;20287;-38
2022/05/02 03:34:08;;;;;;;14.80;12.37;;;10.90;86.80;;;;;;5028225;28;20221;-38
2022/05/02 03:36:35;;;;;;;15.67;13.20;;;10.90;87.00;;;;;;5038674;28;20238;-38
2022/05/02 03:39:03;;;;;;;15.23;12.27;;;10.90;87.10;;;;;;5037729;28;20216;-38
2022/05/02 03:41:31;;;;;;;19.93;13.53;;;10.80;86.90;;;;;;5029702;28;20320;-42
2022/05/02 03:43:58;;;;;;;16.40;13.37;;;10.80;86.90;;;;;;5029810;28;20196;-38
2022/05/02 03:46:30;;;;;;;14.90;13.00;;;10.80;86.90;;;;;;5030070;28;20290;-39
2022/05/02 03:49:00;;;;;;;17.50;12.80;;;10.80;87.10;;;;;;5029810;28;20246;-39
2022/05/02 03:51:28;;;;;;;16.87;12.97;;;10.80;86.70;;;;;;5035081;28;20205;-38
2022/05/02 03:53:55;;;;;;;17.30;13.10;;;10.80;86.90;;;;;;5037421;28;20224;-39
2022/05/02 03:56:22;;;;;;;17.03;13.23;;;10.70;86.90;;;;;;5049497;28;20263;-38
2022/05/02 03:58:52;;;;;;;16.33;12.83;;;10.70;86.90;;;;;;5059262;28;20670;-38
2022/05/02 04:01:19;;;;;;;15.83;13.40;;;10.70;86.80;;;;;;5062459;28;20675;-39
2022/05/02 04:03:47;;;;;;;15.30;13.10;;;10.70;86.80;;;;;;5028976;28;20299;-38
2022/05/02 04:06:16;;;;;;;16.00;13.77;;;10.70;86.90;;;;;;5031950;28;20200;-37
2022/05/02 04:08:44;;;;;;;17.53;13.43;;;10.70;87.20;;;;;;5029744;28;20208;-39
2022/05/02 04:11:12;;;;;;;18.07;13.87;;;10.60;87.20;;;;;;5035555;28;20224;-39
2022/05/02 04:13:39;;;;;;;16.43;13.83;;;10.60;87.30;;;;;;5043366;28;20235;-39
2022/05/02 04:16:06;;;;;;;16.33;13.17;;;10.60;87.40;;;;;;5048239;28;20254;-36
2022/05/02 04:18:34;;;;;;;15.70;13.50;;;10.50;87.30;;;;;;5038834;28;20389;-36
2022/05/02 04:21:01;;;;;;;18.17;13.37;;;10.50;87.40;;;;;;5029380;28;20271;-36
2022/05/02 04:23:29;;;;;;;17.30;14.23;;;10.40;87.30;;;;;;5028960;28;20204;-36
2022/05/02 04:25:59;;;;;;;18.27;14.60;;;10.40;87.30;;;;;;5045460;28;20216;-36
2022/05/02 04:28:26;;;;;;;18.77;14.53;;;10.40;87.40;;;;;;5032911;28;20274;-38
2022/05/02 04:30:55;;;;;;;18.53;14.80;;;10.40;87.40;;;;;;5029307;28;20193;-39
2022/05/02 04:33:25;;;;;;;17.27;13.87;;;10.40;87.30;;;;;;5029675;28;20209;-39
2022/05/02 04:35:53;;;;;;;18.63;14.37;;;10.30;87.40;;;;;;5029265;28;20205;-39
2022/05/02 04:38:20;;;;;;;19.27;14.73;;;10.30;87.40;;;;;;5028426;28;20694;-37
2022/05/02 04:40:50;;;;;;;17.97;14.67;;;10.30;87.50;;;;;;5042790;28;20215;-39
2022/05/02 04:43:17;;;;;;;19.30;14.27;;;10.30;87.80;;;;;;5027638;28;20205;-39
2022/05/02 04:45:44;;;;;;;19.10;14.67;;;10.30;87.70;;;;;;5030071;28;20232;-38
2022/05/02 04:48:11;;;;;;;18.47;15.27;;;10.30;88.30;;;;;;5027858;28;20311;-39
2022/05/02 04:50:39;;;;;;;20.57;15.40;;;10.30;87.70;;;;;;5028488;28;20316;-39
2022/05/02 04:53:08;;;;;;;18.10;14.60;;;10.30;87.70;;;;;;5028685;28;20213;-38
2022/05/02 04:55:35;;;;;;;17.27;15.17;;;10.30;87.60;;;;;;5042703;28;20678;-38
2022/05/02 04:58:03;;;;;;;20.50;15.67;;;10.30;88.30;;;;;;5033865;28;20377;-39
2022/05/02 05:00:32;;;;;;;19.53;15.83;;;10.40;87.80;;;;;;5038103;28;20625;-38
2022/05/02 05:03:02;;;;;;;19.33;15.97;;;10.40;87.90;;;;;;5044017;28;20231;-38
2022/05/02 05:05:29;;;;;;;19.40;15.57;;;10.40;88.20;;;;;;5048454;28;20297;-36
2022/05/02 05:07:59;;;;;;;21.27;16.40;;;10.50;88.00;;;;;;5034392;28;20208;-36
2022/05/02 05:10:26;;;;;;;18.00;15.30;;;10.50;88.00;;;;;;5041393;28;20265;-35
2022/05/02 05:13:07;;;;;;;20.53;16.03;;;10.50;88.00;;;;;;5048730;28;20208;-35
2022/05/02 05:18:56;;;;;;;18.90;15.97;;;10.60;88.50;;;;;;5046398;28;20256;-36
2022/05/02 05:22:03;;;;;;;20.40;16.03;;;10.60;88.50;;;;;;5046302;28;20196;-36
2022/05/02 05:24:44;;;;;;;18.77;15.03;;;10.70;88.50;;;;;;5044049;28;20212;-37
2022/05/02 05:27:23;;;;;;;20.10;16.00;;;10.70;88.40;;;;;;5046008;28;20200;-37
2022/05/02 05:30:06;;;;;;;28.83;17.40;;;10.70;88.60;;;;;;5029919;28;20216;-35
2022/05/02 05:32:54;;;;;;;19.70;16.33;;;10.80;88.90;;;;;;5042881;28;20220;-36
2022/05/02 05:35:41;;;;;;;21.97;16.47;;;10.80;88.90;;;;;;5034970;28;20675;-38
2022/05/02 05:38:23;;;;;;;22.37;15.70;;;10.90;89.20;;;;;;5046700;28;20682;-37
2022/05/02 05:41:01;;;;;;;21.83;16.43;;;10.90;88.90;;;;;;5045404;28;20211;-36
2022/05/02 05:43:44;;;;;;;23.13;17.00;;;10.90;89.20;;;;;;5034727;28;20223;-36
2022/05/02 05:46:36;;;;;;;20.73;16.40;;;11.00;89.20;;;;;;5026254;28;20200;-36
2022/05/02 05:49:41;;;;;;;22.23;17.33;;;11.00;89.10;;;;;;5012588;28;20251;-39
2022/05/02 05:52:13;;;;;;;26.03;16.47;;;11.00;89.20;;;;;;5029781;28;20216;-39
2022/05/02 05:54:49;;;;;;;20.43;16.07;;;11.10;89.20;;;;;;5025746;28;20284;-38
2022/05/02 05:57:38;;;;;;;22.90;17.20;;;11.10;89.60;;;;;;5041535;28;20737;-38
2022/05/02 06:00:14;;;;;;;20.90;17.60;;;11.10;89.50;;;;;;5030899;28;20336;-39
2022/05/02 06:03:08;;;;;;;20.93;17.23;;;11.20;89.80;;;;;;5036111;28;20961;-39
2022/05/02 06:05:45;;;;;;;23.30;18.47;;;11.20;89.70;;;;;;5029017;28;20571;-41
2022/05/02 06:08:18;;;;;;;24.60;18.87;;;11.20;89.90;;;;;;5041593;28;20281;-38
2022/05/02 06:10:50;;;;;;;22.30;18.63;;;11.20;90.00;;;;;;5037568;28;20204;-37
2022/05/02 06:13:19;;;;;;;24.00;18.90;;;11.30;90.10;;;;;;5038252;28;20231;-37
2022/05/02 06:19:41;;;;;;;26.50;19.87;;;11.30;90.00;;;;;;5043185;28;20238;-38
2022/05/02 06:22:11;;;;;;;22.90;18.20;;;11.40;90.60;;;;;;5043390;28;20311;-38
2022/05/02 06:24:44;;;;;;;25.43;19.17;;;11.40;90.10;;;;;;5037671;28;20223;-39
2022/05/02 06:27:13;;;;;;;23.17;19.07;;;11.40;90.20;;;;;;5041426;28;20204;-39
2022/05/02 06:29:41;;;;;;;20.87;17.47;;;11.40;90.10;;;;;;5042621;28;20241;-37
2022/05/02 06:32:12;;;;;;;20.10;17.83;;;11.50;90.20;;;;;;5036981;28;20211;-39
2022/05/02 06:34:40;;;;;;;25.60;18.83;;;11.50;90.30;;;;;;5017313;28;20231;-39
2022/05/02 06:37:13;;;;;;;21.30;17.67;;;11.60;90.30;;;;;;5040410;28;20224;-39
2022/05/02 06:40:02;;;;;;;22.03;17.60;;;11.70;90.40;;;;;;5037870;28;20192;-38
2022/05/02 06:42:39;;;;;;;22.73;17.93;;;11.70;90.40;;;;;;5046882;28;20221;-39
2022/05/02 06:45:25;;;;;;;22.90;18.70;;;11.70;90.40;;;;;;5050758;28;20618;-40
2022/05/02 06:48:13;;;;;;;24.17;19.00;;;11.80;90.50;;;;;;5046541;28;20216;-39
2022/05/02 06:50:47;;;;;;;23.73;18.00;;;11.90;90.60;;;;;;5037083;28;21930;-39
2022/05/02 06:53:51;;;;;;;20.23;16.47;;;12.00;90.60;;;;;;5031037;28;20681;-37
2022/05/02 06:56:48;;;;;;;22.50;17.87;;;12.10;90.70;;;;;;5035132;28;20319;-39
2022/05/02 06:59:57;;;;;;;24.57;17.93;;;12.10;90.80;;;;;;5069759;28;20257;-38
2022/05/02 07:02:49;;;;;;;21.73;17.53;;;12.20;90.80;;;;;;5041834;28;20781;-40
2022/05/02 07:05:22;;;;;;;21.17;17.20;;;12.30;90.80;;;;;;5042262;28;20389;-40
2022/05/02 07:08:02;;;;;;;23.33;18.13;;;12.40;91.00;;;;;;5033912;28;20311;-40
2022/05/02 07:10:33;;;;;;;24.47;18.43;;;12.40;91.00;;;;;;5031239;28;20220;-40
2022/05/02 07:13:10;;;;;;;28.07;21.80;;;12.50;91.10;;;;;;5035586;28;20285;-39
2022/05/02 07:15:49;;;;;;;25.23;18.90;;;12.50;91.20;;;;;;5031796;28;20205;-39
2022/05/02 07:18:47;;;;;;;25.77;19.80;;;12.60;91.10;;;;;;5036228;28;20753;-40
2022/05/02 07:21:31;;;;;;;25.23;19.90;;;12.70;91.20;;;;;;5039733;28;20296;-38
2022/05/02 07:24:39;;;;;;;23.97;18.23;;;12.80;91.20;;;;;;5029471;28;20676;-37
2022/05/02 07:27:23;;;;;;;27.13;19.27;;;12.90;91.40;;;;;;5038990;28;20299;-37
2022/05/02 07:29:51;;;;;;;26.53;19.13;;;12.90;91.30;;;;;;5031709;28;20216;-37
2022/05/02 07:32:22;;;;;;;23.47;18.10;;;13.00;91.30;;;;;;5031743;28;20247;-37
2022/05/02 07:34:54;;;;;;;26.07;18.40;;;13.10;91.40;;;;;;5040942;28;20207;-37
2022/05/02 07:37:22;;;;;;;19.63;16.63;;;13.20;91.50;;;;;;5030342;28;20715;-37
2022/05/02 07:39:51;;;;;;;20.13;16.40;;;13.30;91.50;;;;;;5040986;28;20200;-37
2022/05/02 07:42:22;;;;;;;19.13;16.20;;;13.40;91.80;;;;;;5042725;28;20228;-37
2022/05/02 07:44:52;;;;;;;27.37;16.87;;;13.40;91.50;;;;;;5037547;28;20216;-37
2022/05/02 07:47:25;;;;;;;21.63;16.40;;;13.50;91.60;;;;;;5043842;28;20255;-37
2022/05/02 07:49:56;;;;;;;22.17;14.87;;;13.50;91.60;;;;;;5028213;28;20312;-37
2022/05/02 07:52:28;;;;;;;17.80;13.97;;;13.60;91.60;;;;;;5046980;28;20236;-37
2022/05/02 07:54:58;;;;;;;23.80;15.73;;;13.70;91.70;;;;;;5048022;28;20204;-37
2022/05/02 07:57:28;;;;;;;21.37;14.77;;;13.70;91.70;;;;;;5047942;28;20236;-38
2022/05/02 07:59:59;;;;;;;17.43;15.37;;;13.80;91.60;;;;;;5042419;28;20205;-37
2022/05/02 08:02:26;;;;;;;19.90;15.80;;;13.80;91.80;;;;;;5029491;28;20262;-37
2022/05/02 08:04:56;;;;;;;17.20;14.03;;;13.80;91.70;;;;;;5032401;28;20216;-37
2022/05/02 08:07:38;;;;;;;16.60;13.10;;;13.80;91.70;;;;;;5033451;28;20861;-37
2022/05/02 08:10:38;;;;;;;14.07;12.40;;;13.90;91.70;;;;;;5033560;28;20201;-37
2022/05/02 08:13:48;;;;;;;18.60;14.97;;;14.00;92.00;;;;;;5028847;28;20204;-38
2022/05/02 08:16:23;;;;;;;20.17;14.30;;;14.10;91.60;;;;;;5028240;28;20223;-37
2022/05/02 08:19:15;;;;;;;19.77;15.53;;;14.20;91.70;;;;;;5030860;28;20222;-36
2022/05/02 08:21:47;;;;;;;15.17;13.47;;;14.20;91.70;;;;;;5045429;28;20215;-37
2022/05/02 08:27:39;;;;;;;19.27;13.20;;;14.30;91.70;;;;;;5048517;28;20247;-37
2022/05/02 08:30:09;;;;;;;17.07;12.63;;;14.40;91.50;;;;;;5046656;28;20200;-37
2022/05/02 08:32:53;;;;;;;14.60;11.90;;;14.40;91.70;;;;;;5040532;28;20222;-37
2022/05/02 08:35:33;;;;;;;15.20;12.40;;;14.50;91.70;;;;;;5042023;28;20196;-37
2022/05/02 08:38:37;;;;;;;14.07;11.80;;;14.50;91.50;;;;;;5031234;28;20290;-37
2022/05/02 08:41:17;;;;;;;13.33;10.47;;;14.60;91.30;;;;;;5039905;28;20622;-36
2022/05/02 08:44:11;;;;;;;13.50;10.57;;;14.60;91.50;;;;;;5048853;28;20202;-37
2022/05/02 08:47:05;;;;;;;13.33;10.33;;;14.80;91.10;;;;;;5043214;28;20244;-37
2022/05/02 08:49:38;;;;;;;14.32;11.15;;;14.80;91.50;;;;;;5045951;28;20207;-36
2022/05/02 08:52:05;;;;;;;14.40;11.07;;;14.80;91.40;;;;;;5047117;28;20287;-37
2022/05/02 08:54:52;;;;;;;12.18;9.55;;;14.90;91.50;;;;;;5047526;28;20839;-36
2022/05/02 08:57:44;;;;;;;11.23;9.23;;;15.00;91.70;;;;;;5028574;28;20235;-36
2022/05/02 09:00:40;;;;;;;12.70;11.07;;;15.10;91.80;;;;;;5046997;28;20238;-37
2022/05/02 09:03:51;;;;;;;12.88;10.55;;;15.30;91.40;;;;;;5047636;28;20196;-36
2022/05/02 09:06:38;;;;;;;14.13;11.30;;;15.30;91.10;;;;;;5047365;28;20219;-37
2022/05/02 09:09:30;;;;;;;10.67;9.57;;;15.30;91.30;;;;;;5040776;28;20730;-41
2022/05/02 09:12:41;;;;;;;12.47;10.27;;;15.40;91.70;;;;;;5040900;28;20730;-39
2022/05/02 09:15:08;;;;;;;9.40;8.50;;;15.40;91.00;;;;;;5041949;28;20812;-39
2022/05/02 09:18:07;;;;;;;12.27;10.20;;;15.50;91.70;;;;;;5038186;28;20197;-41
2022/05/02 09:20:55;;;;;;;9.85;8.55;;;15.50;91.60;;;;;;5041181;28;20193;-40
2022/05/02 09:23:34;;;;;;;9.27;8.27;;;15.60;91.60;;;;;;5033894;28;20200;-40
2022/05/02 09:26:37;;;;;;;11.50;8.05;;;15.70;91.80;;;;;;5044464;28;20565;-40
2022/05/02 09:29:17;;;;;;;10.35;8.98;;;15.70;91.80;;;;;;5036617;28;20204;-40
2022/05/02 09:31:59;;;;;;;11.23;10.02;;;15.80;91.80;;;;;;5042648;28;20274;-42
2022/05/02 09:34:51;;;;;;;11.20;8.88;;;15.90;91.50;;;;;;5027417;28;20224;-35
2022/05/02 09:37:25;;;;;;;10.40;8.63;;;15.80;91.40;;;;;;5027905;28;20209;-36
2022/05/02 09:40:12;;;;;;;11.32;8.60;;;15.90;91.40;;;;;;5027047;28;20196;-36
2022/05/02 09:43:03;;;;;;;10.20;8.45;;;15.90;91.30;;;;;;5035998;28;20250;-36
2022/05/02 09:51:36;;;;;;;10.75;7.90;;;16.10;91.40;;;;;;5027445;28;20665;-36
2022/05/02 09:54:05;;;;;;;11.77;8.88;;;16.10;90.90;;;;;;5027787;28;20246;-36
2022/05/02 09:56:43;;;;;;;9.55;8.02;;;16.10;90.80;;;;;;5025422;28;20232;-36
2022/05/02 09:59:23;;;;;;;10.67;7.57;;;16.10;90.90;;;;;;5027139;28;20590;-36
2022/05/02 10:02:01;;;;;;;9.25;7.70;;;16.20;90.90;;;;;;5026062;28;20296;-36
2022/05/02 10:05:03;;;;;;;11.45;8.80;;;16.20;90.60;;;;;;5029102;28;20212;-36
2022/05/02 10:07:42;;;;;;;11.35;8.80;;;16.20;90.70;;;;;;5032072;28;20218;-36
2022/05/02 10:10:43;;;;;;;10.38;7.75;;;16.20;90.90;;;;;;5027592;28;20632;-36
2022/05/02 10:13:59;;;;;;;8.40;7.60;;;16.20;90.50;;;;;;5018852;28;20204;-36
2022/05/02 10:17:07;;;;;;;10.10;7.82;;;16.20;90.00;;;;;;5031383;28;20311;-36
2022/05/02 10:20:02;;;;;;;10.07;7.88;;;16.20;90.40;;;;;;5027361;28;20331;-36
2022/05/02 10:23:04;;;;;;;10.23;7.20;;;16.30;89.40;;;;;;5030242;28;20204;-37
2022/05/02 10:26:06;;;;;;;8.27;7.43;;;16.30;90.00;;;;;;5028814;28;20200;-36
2022/05/02 10:28:58;;;;;;;8.15;7.35;;;16.30;89.30;;;;;;5027115;28;20201;-35
2022/05/02 10:31:25;;;;;;;9.25;7.28;;;16.30;90.30;;;;;;5036775;28;20371;-36
2022/05/02 10:33:54;;;;;;;9.30;8.25;;;16.30;90.20;;;;;;5031088;28;20216;-37
2022/05/02 10:36:35;;;;;;;10.73;8.68;;;16.30;90.10;;;;;;5037227;28;20436;-37
2022/05/02 10:39:25;;;;;;;10.27;7.77;;;16.40;89.60;;;;;;5044578;28;20600;-37
2022/05/02 10:41:58;;;;;;;9.30;7.65;;;16.40;90.30;;;;;;5037754;28;20198;-37
2022/05/02 10:44:33;;;;;;;8.40;6.30;;;16.50;90.50;;;;;;5039803;28;20205;-37
2022/05/02 10:47:03;;;;;;;8.50;6.15;;;16.60;90.80;;;;;;5027325;28;20189;-36
2022/05/02 10:50:08;;;;;;;8.88;7.10;;;16.70;91.00;;;;;;5028289;28;20232;-37
2022/05/02 10:53:11;;;;;;;11.95;7.30;;;16.70;89.00;;;;;;5040815;28;20282;-36
2022/05/02 10:56:06;;;;;;;9.88;7.47;;;16.80;90.00;;;;;;5040246;28;20314;-36
2022/05/02 10:58:38;;;;;;;10.27;8.30;;;16.80;90.10;;;;;;5030603;28;20254;-37
2022/05/02 11:01:08;;;;;;;9.20;7.53;;;16.90;89.90;;;;;;5029103;28;20251;-36
2022/05/02 11:03:59;;;;;;;8.77;6.97;;;16.90;90.20;;;;;;5034689;28;20196;-37
2022/05/02 11:06:45;;;;;;;8.23;7.00;;;17.00;90.10;;;;;;5048489;28;20222;-41
2022/05/02 11:09:25;;;;;;;7.22;5.95;;;17.00;90.70;;;;;;5047563;28;20705;-42
2022/05/02 11:11:52;;;;;;;9.55;7.95;;;17.10;90.90;;;;;;5040592;28;20244;-42
2022/05/02 11:14:57;;;;;;;11.10;8.60;;;17.20;90.50;;;;;;5043515;28;20235;-41
2022/05/02 11:17:42;;;;;;;8.35;6.75;;;17.10;89.80;;;;;;5033616;28;20197;-42
2022/05/02 11:20:43;;;;;;;9.60;8.57;;;17.10;90.00;;;;;;5029012;28;20711;-41
2022/05/02 11:23:32;;;;;;;8.73;7.13;;;17.10;89.70;;;;;;5037310;28;20201;-40
2022/05/02 11:26:13;;;;;;;8.25;6.95;;;17.10;89.80;;;;;;5040302;28;20682;-41
2022/05/02 11:29:04;;;;;;;7.65;6.85;;;17.20;90.00;;;;;;5047277;28;20215;-40
2022/05/02 11:32:00;;;;;;;11.90;8.32;;;17.20;90.30;;;;;;5039214;28;20288;-41
2022/05/02 11:34:56;;;;;;;11.23;8.70;;;17.30;90.00;;;;;;5041988;28;20227;-42
2022/05/02 11:37:51;;;;;;;8.13;7.32;;;17.30;89.00;;;;;;5044018;28;20216;-41
2022/05/02 11:40:32;;;;;;;8.93;7.22;;;17.40;90.20;;;;;;5034612;28;20769;-40
2022/05/02 11:43:03;;;;;;;8.50;7.38;;;17.40;90.10;;;;;;5040139;28;20205;-42
2022/05/02 11:45:43;;;;;;;8.05;7.07;;;17.50;90.00;;;;;;5038233;28;20211;-40
2022/05/02 11:48:46;;;;;;;7.05;6.07;;;17.50;88.90;;;;;;5029545;28;20189;-41
2022/05/02 11:51:44;;;;;;;7.72;6.45;;;17.60;90.40;;;;;;5029311;28;20225;-42
2022/05/02 11:54:36;;;;;;;9.43;6.85;;;17.60;90.10;;;;;;5035422;28;20218;-41
2022/05/02 11:57:51;;;;;;;8.43;7.22;;;17.70;90.40;;;;;;5046337;28;20248;-41
2022/05/02 12:00:18;;;;;;;9.30;7.50;;;17.60;88.60;;;;;;5036013;28;20245;-40
2022/05/02 12:02:48;;;;;;;11.30;7.53;;;17.70;88.50;;;;;;5028285;28;20205;-42
2022/05/02 12:05:18;;;;;;;8.65;6.60;;;17.60;87.50;;;;;;5029735;28;20220;-41
2022/05/02 12:07:54;;;;;;;8.13;7.07;;;17.60;89.00;;;;;;5032058;28;20207;-42
2022/05/02 12:10:35;;;;;;;9.60;6.60;;;17.70;88.10;;;;;;5029253;28;20694;-41
2022/05/02 12:13:05;;;;;;;10.13;6.60;;;17.70;89.60;;;;;;5033150;28;20201;-36
2022/05/02 12:15:32;;;;;;;9.38;5.68;;;17.80;90.10;;;;;;5033402;28;20193;-36
2022/05/02 12:18:05;;;;;;;10.63;6.93;;;17.90;90.30;;;;;;5049993;28;20276;-36
2022/05/02 12:20:39;;;;;;;8.15;7.03;;;17.90;88.20;;;;;;5053455;28;20204;-36
2022/05/02 12:23:10;;;;;;;8.15;7.35;;;17.90;89.10;;;;;;5043884;28;20303;-36
2022/05/02 12:25:57;;;;;;;6.20;5.50;;;18.00;89.70;;;;;;5034447;28;20217;-36
2022/05/02 12:28:47;;;;;;;5.80;5.20;;;18.10;90.20;;;;;;5028833;28;20292;-36
2022/05/02 12:31:29;;;;;;;8.18;6.15;;;18.10;90.20;;;;;;5035160;28;20287;-42
2022/05/02 12:34:13;;;;;;;10.25;7.30;;;18.20;90.10;;;;;;5047605;28;20220;-43
2022/05/02 12:36:43;;;;;;;9.25;7.28;;;18.20;88.90;;;;;;5041292;28;20204;-42
2022/05/02 12:39:35;;;;;;;7.75;6.90;;;18.20;88.60;;;;;;5039690;28;20216;-41
2022/05/02 12:42:23;;;;;;;6.18;5.57;;;18.30;89.10;;;;;;5028911;28;20197;-41
2022/05/02 12:45:07;;;;;;;6.72;5.40;;;18.30;88.50;;;;;;5037988;28;20200;-40
2022/05/02 12:47:50;;;;;;;6.75;6.00;;;18.30;88.10;;;;;;5044028;28;20208;-42
2022/05/02 12:50:23;;;;;;;6.35;5.45;;;18.30;88.30;;;;;;5047101;28;20223;-41
2022/05/02 12:52:55;;;;;;;7.90;5.80;;;18.30;88.20;;;;;;5032386;28;20679;-42
2022/05/02 12:55:34;;;;;;;6.07;5.15;;;18.40;89.30;;;;;;5068258;28;20203;-42
2022/05/02 13:00:52;;;;;;;5.40;4.90;;;18.40;88.10;;;;;;4992960;28;20297;-37
2022/05/02 13:03:24;;;;;;;8.05;6.10;;;18.50;89.20;;;;;;4994906;28;20589;-36
2022/05/02 13:06:07;;;;;;;6.30;5.70;;;18.50;88.80;;;;;;4989186;28;20210;-36
2022/05/02 13:08:41;;;;;;;7.35;4.95;;;18.60;89.30;;;;;;4988671;28;20208;-37
2022/05/02 13:11:11;;;;;;;8.15;6.53;;;18.70;90.00;;;;;;4989584;28;20218;-42
2022/05/02 13:13:45;;;;;;;9.07;6.28;;;18.70;89.30;;;;;;4990024;28;20646;-37
2022/05/02 13:16:15;;;;;;;8.63;6.20;;;18.80;89.70;;;;;;5004185;28;20268;-37
2022/05/02 13:18:50;;;;;;;6.28;5.28;;;18.90;89.40;;;;;;4992334;28;20218;-37
2022/05/02 13:21:19;;;;;;;5.10;4.55;;;18.90;89.90;;;;;;4987188;28;20751;-36
2022/05/02 13:23:56;;;;;;;6.53;5.90;;;19.00;90.20;;;;;;4987852;28;20349;-36
2022/05/02 13:26:39;;;;;;;9.27;6.18;;;19.10;88.90;;;;;;4989164;28;20574;-36
2022/05/02 13:29:35;;;;;;;8.13;6.30;;;19.20;86.60;;;;;;4987317;28;20246;-36
2022/05/02 13:32:10;;;;;;;7.78;5.80;;;19.20;86.50;;;;;;4991099;28;20653;-36
2022/05/02 13:34:40;;;;;;;5.72;5.07;;;19.20;88.90;;;;;;4987306;28;20225;-37
2022/05/02 13:37:36;;;;;;;7.35;5.97;;;19.20;88.90;;;;;;4988501;28;20217;-37
2022/05/02 13:40:44;;;;;;;8.32;6.68;;;19.30;89.10;;;;;;4988888;28;20605;-37
2022/05/02 13:43:52;;;;;;;5.82;5.18;;;19.30;86.60;;;;;;4994061;28;20194;-37
2022/05/02 13:47:09;;;;;;;6.70;6.00;;;19.40;89.20;;;;;;5004335;28;20220;-37